Time;durP1;ratioP1;P1;durP2;ratioP2;P2;SDS_P1;SDS_P2;PMS_P1;PMS_P2;Temp;Humidity;BMP_temperature;BMP_pressure;BME280_temperature;BME280_humidity;BME280_pressure;Samples;Min_cycle;Max_cycle;Signal;HPM_P1;HPM_P2
2023/04/28 00:02:42;;;;;;;53.95;50.45;;;;;;;8.30;100.00;101400.88;5136122;27;20050;-90
2023/04/28 00:05:48;;;;;;;54.88;51.25;;;;;;;8.39;100.00;101413.09;5138850;27;20460;-90
2023/04/28 00:11:49;;;;;;;;;;;;;;;;;;;;;
2023/04/28 00:27:20;;;;;;;72.45;67.43;;;;;;;8.45;100.00;101438.84;5020104;28;20060;-90
2023/04/28 00:36:12;;;;;;;78.57;73.47;;;;;;;8.36;100.00;101441.69;5139163;27;20766;-90
2023/04/28 00:56:34;;;;;;;60.63;56.47;;;;;;;7.88;100.00;101446.19;5109712;28;20051;-90
2023/04/28 01:02:18;;;;;;;62.22;58.13;;;;;;;7.78;100.00;101441.09;5103289;28;20486;-89
2023/04/28 01:14:03;;;;;;;38.47;35.28;;;;;;;7.62;100.00;101457.00;5043771;28;20143;-90
2023/04/28 01:35:22;;;;;;;39.47;35.97;;;;;;;7.40;100.00;101451.41;5021145;28;20049;-90
2023/04/28 01:38:20;;;;;;;51.42;46.22;;;;;;;7.07;100.00;101459.34;5090013;28;20040;-90
2023/04/28 01:41:14;;;;;;;163.75;126.05;;;;;;;7.02;100.00;101458.19;5126318;27;20050;-90
2023/04/28 01:50:12;;;;;;;64.55;57.53;;;;;;;7.21;100.00;101465.81;5118728;27;20048;-89
2023/04/28 01:52:49;;;;;;;48.03;43.33;;;;;;;7.18;100.00;101463.50;5121779;27;20081;-89
2023/04/28 01:58:59;;;;;;;43.13;38.47;;;;;;;7.13;100.00;101457.03;5109161;27;20144;-90
2023/04/28 02:19:50;;;;;;;50.67;45.40;;;;;;;6.52;100.00;101475.78;5128466;27;20141;-90
2023/04/28 02:22:22;;;;;;;50.58;45.20;;;;;;;6.18;100.00;101478.47;5123862;27;20100;-90
2023/04/28 02:24:55;;;;;;;48.53;43.65;;;;;;;6.01;100.00;101484.63;5119394;27;20051;-90
2023/04/28 02:39:15;;;;;;;62.17;56.17;;;;;;;6.24;100.00;101482.28;5119678;27;20061;-90
2023/04/28 02:41:55;;;;;;;50.75;45.55;;;;;;;6.22;100.00;101479.78;5118530;27;20050;-89
2023/04/28 02:44:59;;;;;;;46.70;42.28;;;;;;;6.06;100.00;101496.38;5121568;27;20051;-89
2023/04/28 02:50:34;;;;;;;;;;;;;;;6.04;100.00;101493.06;5118298;27;20446;-89
2023/04/28 02:53:45;;;;;;;55.47;49.85;;;;;;;6.03;100.00;101488.78;5118567;27;20393;-89
2023/04/28 03:03:01;;;;;;;;;;;;;;;6.11;100.00;101517.84;5080080;27;20050;-89
2023/04/28 03:05:42;;;;;;;44.88;40.35;;;;;;;6.11;100.00;101512.56;5121528;27;19919;-89
2023/04/28 03:08:40;;;;;;;47.10;42.05;;;;;;;6.08;100.00;101519.94;5123066;27;20050;-90
2023/04/28 03:11:49;;;;;;;41.90;37.95;;;;;;;5.72;100.00;101520.88;5090861;27;20042;-90
2023/04/28 03:20:28;;;;;;;42.03;37.72;;;;;;;5.82;100.00;101527.84;5116286;27;20052;-90
2023/04/28 03:29:08;;;;;;;45.65;41.22;;;;;;;5.77;100.00;101549.38;5117655;27;20499;-90
2023/04/28 03:46:56;;;;;;;65.55;59.58;;;;;;;6.04;100.00;101584.53;5100365;27;20057;-90
2023/04/28 03:59:10;;;;;;;66.60;60.47;;;;;;;6.00;100.00;101588.47;5074742;28;20048;-90
2023/04/28 04:02:25;;;;;;;63.53;57.72;;;;;;;6.37;100.00;101575.81;5096361;28;20108;-89
2023/04/28 04:05:29;;;;;;;69.97;63.50;;;;;;;6.28;100.00;101594.41;5121112;27;20106;-90
2023/04/28 04:14:42;;;;;;;56.88;51.33;;;;;;;6.51;100.00;101592.91;5088859;28;20075;-90
2023/04/28 04:20:39;;;;;;;60.25;53.88;;;;;;;6.86;100.00;101606.88;5075718;28;20044;-90
2023/04/28 04:23:26;;;;;;;57.22;50.17;;;;;;;6.73;100.00;101609.97;5087469;28;20079;-90
2023/04/28 04:26:08;;;;;;;56.13;48.10;;;;;;;6.84;100.00;101603.59;5087727;28;20048;-90
2023/04/28 04:42:14;;;;;;;51.67;46.05;;;;;;;7.58;100.00;101615.13;5068434;28;20327;-89
2023/04/28 04:50:48;;;;;;;49.63;44.55;;;;;;;7.74;100.00;101622.25;5071888;28;20520;-89
2023/04/28 05:05:15;;;;;;;41.97;33.55;;;;;;;8.14;100.00;101641.72;5005369;28;20052;-89
2023/04/28 05:10:47;;;;;;;40.47;36.60;;;;;;;8.40;100.00;101649.50;5008922;28;20099;-89
2023/04/28 05:13:24;;;;;;;41.90;37.58;;;;;;;8.69;100.00;101651.59;5012164;28;20042;-89
2023/04/28 05:19:12;;;;;;;42.30;38.22;;;;;;;8.76;100.00;101646.44;5005206;28;20209;-90
2023/04/28 05:21:39;;;;;;;45.58;41.03;;;;;;;8.93;100.00;101656.81;5016585;28;20057;-90
2023/04/28 05:24:06;;;;;;;40.55;36.85;;;;;;;8.95;100.00;101659.25;5081430;28;20101;-89
2023/04/28 05:27:12;;;;;;;40.63;36.38;;;;;;;8.92;100.00;101656.97;5077414;28;20044;-89
2023/04/28 05:29:41;;;;;;;40.45;36.78;;;;;;;9.10;100.00;101652.22;5068801;28;20405;-90
2023/04/28 05:32:08;;;;;;;44.60;40.65;;;;;;;9.33;100.00;101648.81;5083310;28;20044;-89
2023/04/28 05:34:36;;;;;;;41.92;38.58;;;;;;;9.50;100.00;101654.81;5080304;28;20048;-90
2023/04/28 05:37:03;;;;;;;40.85;37.15;;;;;;;9.61;100.00;101649.13;5081664;28;20048;-90
2023/04/28 05:39:30;;;;;;;36.20;32.75;;;;;;;9.50;100.00;101665.44;5078609;28;20475;-90
2023/04/28 05:42:00;;;;;;;34.67;31.15;;;;;;;9.36;100.00;101664.38;5077849;28;20048;-89
2023/04/28 05:44:27;;;;;;;35.75;32.65;;;;;;;9.25;100.00;101670.88;5081208;28;20055;-90
2023/04/28 05:46:53;;;;;;;36.40;33.05;;;;;;;9.70;100.00;101663.97;5077234;28;20051;-90
2023/04/28 05:49:20;;;;;;;37.40;33.90;;;;;;;9.78;100.00;101663.09;5082346;28;20047;-90
2023/04/28 06:01:11;;;;;;;34.45;31.38;;;;;;;10.14;100.00;101686.38;4976219;28;20065;-89
2023/04/28 06:06:30;;;;;;;31.83;29.20;;;;;;;9.96;100.00;101679.53;5030396;28;20070;-90
2023/04/28 06:08:58;;;;;;;29.50;26.95;;;;;;;10.50;100.00;101681.25;5080149;28;20493;-90
2023/04/28 06:11:25;;;;;;;26.60;24.33;;;;;;;10.60;100.00;101691.59;5073885;28;20500;-89
2023/04/28 06:13:52;;;;;;;27.17;25.10;;;;;;;10.29;100.00;101696.03;5087579;28;20143;-90
2023/04/28 06:16:19;;;;;;;25.95;23.98;;;;;;;10.51;100.00;101685.53;5080176;28;20044;-90
2023/04/28 06:18:46;;;;;;;22.35;20.35;;;;;;;10.34;100.00;101690.19;5080803;28;20523;-90
2023/04/28 06:21:13;;;;;;;23.90;21.92;;;;;;;10.97;100.00;101688.84;5081874;28;20123;-90
2023/04/28 06:23:41;;;;;;;20.60;18.90;;;;;;;11.36;100.00;101692.19;5078333;28;20054;-88
2023/04/28 06:26:09;;;;;;;21.77;19.65;;;;;;;11.11;100.00;101684.53;5077479;28;20055;-89
2023/04/28 06:28:53;;;;;;;20.67;18.95;;;;;;;11.54;100.00;101686.44;5079875;28;20560;-90
2023/04/28 06:31:57;;;;;;;21.48;19.70;;;;;;;11.67;100.00;101694.56;5083821;28;20405;-90
2023/04/28 06:34:39;;;;;;;23.13;21.33;;;;;;;11.29;100.00;101686.78;5080002;28;20044;-90
2023/04/28 06:40:46;;;;;;;20.30;18.70;;;;;;;11.53;100.00;101687.44;4977852;28;20606;-89
2023/04/28 06:43:38;;;;;;;20.92;19.33;;;;;;;12.07;100.00;101689.63;5062804;28;20052;-90
2023/04/28 06:52:00;;;;;;;24.02;22.17;;;;;;;12.65;100.00;101687.59;5062907;28;20053;-90
2023/04/28 06:57:08;;;;;;;23.30;20.98;;;;;;;12.26;100.00;101682.84;5062302;28;20056;-90
2023/04/28 06:59:47;;;;;;;;;;;;;;;;;;;;;
2023/04/28 07:02:14;;;;;;;21.25;19.60;;;;;;;11.62;100.00;101694.31;5062154;28;20052;-90
2023/04/28 07:04:41;;;;;;;20.65;18.90;;;;;;;11.32;100.00;101693.56;5062374;28;20055;-89
2023/04/28 07:07:08;;;;;;;20.73;19.02;;;;;;;11.69;100.00;101687.22;5063724;28;20060;-90
2023/04/28 07:09:35;;;;;;;23.52;21.15;;;;;;;12.55;100.00;101692.44;5066193;28;20047;-90
2023/04/28 07:12:03;;;;;;;23.60;21.63;;;;;;;12.65;100.00;101690.28;5060313;28;20041;-89
2023/04/28 07:14:30;;;;;;;22.92;20.58;;;;;;;12.57;100.00;101693.09;5062712;28;20040;-89
2023/04/28 07:16:59;;;;;;;23.63;21.63;;;;;;;12.82;100.00;101690.75;5063099;28;20513;-90
2023/04/28 07:19:26;;;;;;;23.77;21.75;;;;;;;12.56;100.00;101691.44;5054804;28;20049;-89
2023/04/28 07:21:53;;;;;;;25.50;22.92;;;;;;;12.76;100.00;101694.22;5063819;28;20059;-90
2023/04/28 07:24:21;;;;;;;23.98;22.17;;;;;;;12.73;100.00;101694.59;5061849;28;20055;-90
2023/04/28 07:26:48;;;;;;;23.58;21.73;;;;;;;12.05;100.00;101695.16;5059291;28;20049;-90
2023/04/28 07:29:15;;;;;;;24.73;22.67;;;;;;;11.81;100.00;101684.88;5068532;28;20040;-90
2023/04/28 07:31:41;;;;;;;24.80;22.80;;;;;;;12.32;100.00;101690.06;5065642;28;20527;-90
2023/04/28 07:34:10;;;;;;;24.98;22.98;;;;;;;13.28;100.00;101690.16;5067371;28;20607;-89
2023/04/28 07:36:37;;;;;;;24.45;22.52;;;;;;;13.51;100.00;101679.16;5047999;28;20139;-90
2023/04/28 07:39:04;;;;;;;23.75;21.95;;;;;;;13.67;100.00;101691.31;5055367;28;20041;-89
2023/04/28 07:41:31;;;;;;;25.40;23.27;;;;;;;12.98;100.00;101684.28;5057498;28;20041;-89
2023/04/28 07:43:58;;;;;;;26.00;23.90;;;;;;;12.60;100.00;101680.19;5055860;28;20079;-90
2023/04/28 07:46:25;;;;;;;23.98;21.92;;;;;;;13.68;100.00;101671.63;5059298;28;20052;-90
2023/04/28 07:48:52;;;;;;;26.05;23.50;;;;;;;14.32;100.00;101676.34;5060533;28;20052;-91
2023/04/28 07:51:20;;;;;;;25.13;23.08;;;;;;;14.47;95.29;101675.31;5057990;28;20048;-90
2023/04/28 07:53:47;;;;;;;25.05;23.05;;;;;;;14.30;87.56;101673.06;5054416;28;20053;-91
2023/04/28 07:56:15;;;;;;;24.75;22.63;;;;;;;14.37;92.77;101675.72;5058093;28;20563;-90
2023/04/28 07:58:42;;;;;;;24.25;22.25;;;;;;;13.65;100.00;101685.38;5060977;28;20056;-90
2023/04/28 08:01:09;;;;;;;23.30;21.27;;;;;;;15.08;100.00;101681.09;5059916;28;20053;-90
2023/04/28 08:03:35;;;;;;;23.60;21.60;;;;;;;15.04;74.82;101671.88;5058726;28;20044;-90
2023/04/28 08:06:03;;;;;;;22.80;20.67;;;;;;;14.76;81.12;101677.50;5060180;28;20041;-90
2023/04/28 08:08:31;;;;;;;23.70;21.75;;;;;;;15.09;87.88;101665.88;5054816;28;20112;-90
2023/04/28 08:10:58;;;;;;;21.50;19.70;;;;;;;14.71;100.00;101669.31;5058550;28;20036;-90
2023/04/28 08:13:25;;;;;;;20.98;19.27;;;;;;;14.83;100.00;101672.16;5061442;28;20048;-90
2023/04/28 08:15:52;;;;;;;21.90;19.98;;;;;;;14.65;71.15;101668.31;5056480;28;20045;-90
2023/04/28 08:18:19;;;;;;;23.50;21.70;;;;;;;15.07;67.78;101660.75;5060859;28;20044;-90
2023/04/28 08:20:46;;;;;;;22.67;20.85;;;;;;;15.53;84.15;101669.56;5054577;28;20051;-90
2023/04/28 08:23:15;;;;;;;22.98;21.17;;;;;;;15.43;64.39;101670.03;5056206;28;20040;-90
2023/04/28 08:31:40;;;;;;;;;;;;;;;15.77;65.43;101657.28;5052153;28;20051;-89
2023/04/28 08:40:30;;;;;;;24.60;22.42;;;;;;;15.89;55.22;101644.00;5071768;28;20087;-90
2023/04/28 08:43:45;;;;;;;22.80;21.10;;;;;;;15.50;55.61;101635.19;4994078;28;20134;-91
2023/04/28 08:50:18;;;;;;;23.80;22.10;;;;;;;15.87;63.03;101633.50;5079340;28;20066;-90
2023/04/28 08:52:47;;;;;;;27.48;25.10;;;;;;;15.13;59.68;101632.31;5084195;28;20117;-90
2023/04/28 08:55:15;;;;;;;26.20;24.27;;;;;;;15.87;73.95;101644.22;5080171;28;20048;-90
2023/04/28 08:57:44;;;;;;;25.95;24.05;;;;;;;16.23;68.67;101648.03;5079753;28;20094;-90
2023/04/28 09:00:12;;;;;;;28.92;26.50;;;;;;;15.05;59.62;101635.25;5080489;28;20053;-90
2023/04/28 09:02:41;;;;;;;28.40;25.92;;;;;;;15.88;60.37;101642.34;5077470;28;20083;-90
2023/04/28 09:05:10;;;;;;;27.73;25.42;;;;;;;16.18;50.74;101631.78;5078325;28;20051;-90
2023/04/28 09:07:37;;;;;;;27.05;24.55;;;;;;;16.48;55.81;101634.56;5077946;28;20075;-90
2023/04/28 09:10:17;;;;;;;24.10;22.20;;;;;;;16.16;71.86;101626.66;5078506;28;20416;-90
2023/04/28 09:12:44;;;;;;;26.60;24.50;;;;;;;16.79;61.57;101622.88;5080084;28;20075;-89
2023/04/28 09:15:11;;;;;;;26.42;24.33;;;;;;;16.32;70.23;101624.44;5075658;28;20047;-90
2023/04/28 09:17:48;;;;;;;28.05;25.30;;;;;;;15.91;61.83;101626.66;5077548;28;20440;-90
2023/04/28 09:20:27;;;;;;;26.00;23.80;;;;;;;15.94;62.06;101622.72;5073440;28;20106;-90
2023/04/28 09:22:55;;;;;;;25.23;23.42;;;;;;;16.74;76.27;101606.63;5079184;28;20044;-90
2023/04/28 09:25:25;;;;;;;27.42;25.20;;;;;;;16.85;59.52;101608.59;5077827;28;20041;-90
2023/04/28 09:27:52;;;;;;;26.50;24.45;;;;;;;17.01;62.08;101609.84;5076196;28;20079;-91
2023/04/28 09:30:20;;;;;;;25.15;23.10;;;;;;;17.09;64.32;101611.38;5083750;28;20051;-90
2023/04/28 09:33:05;;;;;;;25.90;23.70;;;;;;;16.92;53.20;101601.28;5077548;28;20125;-90
2023/04/28 09:35:41;;;;;;;23.10;21.40;;;;;;;16.52;55.70;101602.75;5077777;28;20067;-89
2023/04/28 09:38:08;;;;;;;24.77;22.58;;;;;;;16.65;54.12;101608.00;5081377;28;20060;-90
2023/04/28 09:40:50;;;;;;;27.45;25.42;;;;;;;16.25;54.07;101595.03;5080855;28;20523;-90
2023/04/28 09:43:24;;;;;;;30.80;27.55;;;;;;;16.56;59.35;101603.97;5077637;28;20037;-90
2023/04/28 09:45:51;;;;;;;24.83;22.70;;;;;;;15.98;57.22;101581.06;5074464;28;20044;-89
2023/04/28 09:48:27;;;;;;;23.35;21.42;;;;;;;16.89;68.42;101598.22;5077632;28;20043;-90
2023/04/28 09:50:56;;;;;;;37.85;34.70;;;;;;;17.28;57.82;101602.22;5079800;28;20448;-90
2023/04/28 10:00:28;;;;;;;30.05;27.63;;;;;;;15.69;77.21;101587.91;5076604;28;20066;-90
2023/04/28 10:12:43;;;;;;;33.92;31.52;;;;;;;15.74;73.51;101574.69;4973683;28;20058;-90
2023/04/28 10:15:30;;;;;;;35.50;32.92;;;;;;;15.66;66.92;101581.09;5080734;28;20121;-90
2023/04/28 10:21:06;;;;;;;41.30;38.20;;;;;;;14.53;59.72;101570.25;5078983;28;20448;-90
2023/04/28 10:24:10;;;;;;;42.83;40.13;;;;;;;15.55;57.50;101571.09;5078727;28;20044;-89
2023/04/28 10:27:08;;;;;;;38.15;35.83;;;;;;;14.77;57.81;101574.06;5085720;28;20051;-90
2023/04/28 10:29:35;;;;;;;43.85;41.00;;;;;;;14.21;64.89;101573.59;5076460;28;20041;-90
2023/04/28 10:32:19;;;;;;;39.08;36.67;;;;;;;13.91;66.43;101578.56;5080760;28;20060;-90
2023/04/28 10:34:47;;;;;;;37.15;34.63;;;;;;;13.77;83.00;101576.09;5081078;28;20507;-91
2023/04/28 11:08:33;;;;;;;34.75;32.42;;;;;;;15.27;77.04;101547.41;4874253;29;20045;-90
2023/04/28 11:11:22;;;;;;;31.52;29.42;;;;;;;15.08;64.95;101552.69;4977413;28;20047;-90
2023/04/28 11:13:50;;;;;;;29.60;27.73;;;;;;;15.66;75.74;101540.13;5063199;28;20127;-90
2023/04/28 11:16:19;;;;;;;31.13;29.02;;;;;;;16.23;74.82;101547.00;5075191;28;20045;-90
2023/04/28 11:18:51;;;;;;;33.80;31.70;;;;;;;15.50;66.86;101546.84;5079533;28;20063;-90
2023/04/28 11:21:21;;;;;;;32.70;30.35;;;;;;;14.88;63.54;101544.78;5083130;28;20044;-90
2023/04/28 11:24:01;;;;;;;24.10;22.13;;;;;;;14.38;71.43;101543.75;5078235;28;20048;-90
2023/04/28 11:27:09;;;;;;;22.95;21.13;;;;;;;14.20;78.72;101528.38;5073634;28;20467;-90
2023/04/28 11:29:49;;;;;;;23.83;22.02;;;;;;;16.02;80.45;101529.50;5077207;28;20044;-90
2023/04/28 11:32:54;;;;;;;22.60;20.85;;;;;;;15.34;58.79;101530.28;5071506;28;20041;-90
2023/04/28 11:35:50;;;;;;;23.33;21.48;;;;;;;15.48;72.83;101541.69;5084244;28;20060;-91
2023/04/28 11:47:42;;;;;;;31.27;28.98;;;;;;;14.74;78.63;101537.06;5074333;28;20539;-89
2023/04/28 11:53:25;;;;;;;41.25;38.38;;;;;;;15.10;66.36;101525.72;5071651;28;20063;-90
2023/04/28 11:56:16;;;;;;;36.05;33.25;;;;;;;15.08;87.35;101535.81;5077625;28;20505;-91
2023/04/28 11:59:11;;;;;;;34.03;31.92;;;;;;;15.65;77.27;101522.41;5076238;28;20053;-90
2023/04/28 12:08:18;;;;;;;32.78;30.27;;;;;;;15.76;82.87;101519.03;5075122;28;20083;-91
2023/04/28 12:16:59;;;;;;;29.52;27.23;;;;;;;15.35;75.16;101499.81;5079945;28;20055;-90
2023/04/28 12:20:08;;;;;;;22.63;20.58;;;;;;;15.37;70.04;101499.59;5085478;28;20071;-90
2023/04/28 12:23:16;;;;;;;23.27;21.38;;;;;;;16.05;76.01;101509.47;5068821;28;20048;-91
2023/04/28 12:26:30;;;;;;;24.55;22.27;;;;;;;17.00;71.62;101486.59;5062221;28;20056;-91
2023/04/28 12:48:02;;;;;;;26.30;23.50;;;;;;;15.95;86.73;101469.00;5049502;28;20131;-91
2023/04/28 12:50:58;;;;;;;22.50;20.73;;;;;;;16.16;55.70;101465.03;5081038;28;20561;-91
2023/04/28 12:57:06;;;;;;;25.17;22.98;;;;;;;15.87;85.37;101466.59;5078358;28;20129;-91
2023/04/28 13:05:46;;;;;;;25.40;23.30;;;;;;;16.05;66.59;101447.03;5051584;28;20084;-91
2023/04/28 13:17:27;;;;;;;24.73;22.38;;;;;;;16.72;68.71;101448.59;4915458;29;20620;-90
2023/04/28 13:19:54;;;;;;;23.63;21.55;;;;;;;16.56;70.10;101441.22;5051461;28;20596;-90
2023/04/28 13:22:21;;;;;;;24.60;22.40;;;;;;;17.91;66.77;101433.41;5048516;28;20045;-91
2023/04/28 13:24:50;;;;;;;23.30;21.25;;;;;;;17.74;64.45;101431.44;5043340;28;20107;-90
2023/04/28 13:27:17;;;;;;;24.05;22.05;;;;;;;17.51;60.68;101431.44;5055930;28;20045;-91
2023/04/28 13:29:44;;;;;;;23.63;21.60;;;;;;;16.93;65.45;101430.38;5056270;28;20073;-90
2023/04/28 13:32:52;;;;;;;23.85;21.75;;;;;;;16.96;65.67;101432.59;5053872;28;20048;-90
2023/04/28 13:45:53;;;;;;;25.02;23.02;;;;;;;15.54;71.46;101424.88;5068710;28;20057;-90
2023/04/28 14:04:01;;;;;;;27.05;22.15;;;;;;;14.68;75.21;101421.09;5064595;28;20044;-90
2023/04/28 14:06:55;;;;;;;35.25;32.65;;;;;;;15.92;78.30;101419.34;5069725;28;20068;-90
2023/04/28 14:09:23;;;;;;;25.52;23.05;;;;;;;16.13;68.99;101414.59;5057182;28;20497;-90
2023/04/28 14:11:50;;;;;;;23.20;21.20;;;;;;;16.09;62.52;101416.88;5066470;28;20045;-90
2023/04/28 14:14:19;;;;;;;24.25;22.38;;;;;;;16.66;58.33;101400.41;5069668;28;20049;-90
2023/04/28 14:16:47;;;;;;;23.67;21.58;;;;;;;16.29;56.21;101415.81;5071905;28;20052;-90
2023/04/28 14:19:16;;;;;;;22.52;20.58;;;;;;;15.89;60.44;101411.78;5067971;28;20041;-90
2023/04/28 14:21:43;;;;;;;23.70;21.70;;;;;;;16.17;63.39;101415.75;5071784;28;20040;-90
2023/04/28 14:24:10;;;;;;;23.02;20.95;;;;;;;15.27;77.62;101410.94;5067961;28;20494;-90
2023/04/28 14:26:37;;;;;;;22.45;20.40;;;;;;;15.23;58.45;101405.22;5069052;28;20041;-91
2023/04/28 14:29:04;;;;;;;23.15;20.92;;;;;;;14.82;66.20;101403.06;5067864;28;20052;-92
2023/04/28 14:31:32;;;;;;;23.05;21.02;;;;;;;15.91;69.04;101403.50;5071335;28;20448;-90
2023/04/28 14:33:59;;;;;;;22.33;20.30;;;;;;;14.98;71.39;101402.56;5067097;28;20414;-90
2023/04/28 14:36:27;;;;;;;22.25;20.45;;;;;;;15.32;74.24;101400.41;5074029;28;20101;-90
2023/04/28 14:38:54;;;;;;;22.38;20.48;;;;;;;15.01;79.27;101390.59;5084745;28;20075;-90
2023/04/28 14:41:21;;;;;;;22.77;20.88;;;;;;;14.01;74.94;101399.22;5076938;28;20417;-90
2023/04/28 14:43:48;;;;;;;24.25;22.05;;;;;;;15.01;80.57;101388.75;5077782;28;20048;-90
2023/04/28 14:46:16;;;;;;;22.95;20.75;;;;;;;15.44;69.15;101389.78;5088229;28;20149;-91
2023/04/28 14:48:45;;;;;;;22.73;20.85;;;;;;;16.19;68.12;101386.88;5085115;28;20081;-90
2023/04/28 15:07:45;;;;;;;22.77;20.83;;;;;;;16.94;57.72;101381.00;5078260;28;20078;-90
2023/04/28 15:10:12;;;;;;;22.42;20.30;;;;;;;16.20;62.35;101370.56;5086936;28;20040;-91
2023/04/28 15:12:39;;;;;;;24.60;22.70;;;;;;;15.40;59.76;101380.53;5081208;28;20048;-90
2023/04/28 15:15:07;;;;;;;24.40;22.40;;;;;;;15.55;62.21;101372.97;5082702;28;20429;-90
2023/04/28 15:17:34;;;;;;;37.08;33.63;;;;;;;15.82;63.38;101383.41;5086801;28;20044;-90
2023/04/28 15:20:01;;;;;;;26.02;23.48;;;;;;;15.48;58.17;101385.63;5089890;28;20052;-90
2023/04/28 15:22:28;;;;;;;21.95;19.92;;;;;;;15.23;85.70;101381.13;5086992;28;20053;-90
2023/04/28 15:24:56;;;;;;;22.30;20.30;;;;;;;15.47;63.78;101378.63;5081724;28;20071;-90
2023/04/28 15:27:23;;;;;;;23.25;21.15;;;;;;;15.53;97.77;101380.44;5081803;28;20047;-90
2023/04/28 15:29:50;;;;;;;22.42;20.65;;;;;;;15.01;65.10;101372.69;5079344;28;20044;-90
2023/04/28 15:32:17;;;;;;;21.90;20.10;;;;;;;14.96;71.02;101377.88;5076847;28;20052;-90
2023/04/28 15:34:44;;;;;;;22.08;19.67;;;;;;;15.34;68.55;101368.91;5083900;28;20040;-90
2023/04/28 15:37:41;;;;;;;24.02;21.80;;;;;;;15.52;66.20;101376.09;5085196;28;20067;-90
2023/04/28 15:40:11;;;;;;;21.08;19.38;;;;;;;15.36;64.37;101361.44;5087501;28;20536;-91
2023/04/28 15:42:40;;;;;;;21.88;19.67;;;;;;;15.45;74.89;101365.47;5088459;28;20072;-90
2023/04/28 15:45:10;;;;;;;21.42;19.67;;;;;;;14.99;65.11;101368.59;5088546;28;20497;-90
2023/04/28 15:47:37;;;;;;;21.00;18.45;;;;;;;14.55;65.17;101348.97;5085001;28;20540;-90
2023/04/28 15:50:05;;;;;;;21.67;19.50;;;;;;;14.96;65.78;101361.81;5085958;28;20093;-90
2023/04/28 15:52:32;;;;;;;26.42;23.80;;;;;;;14.85;64.80;101349.97;5088586;28;20156;-90
2023/04/28 15:54:59;;;;;;;20.65;18.95;;;;;;;14.78;67.67;101337.72;5087495;28;20044;-90
2023/04/28 15:57:28;;;;;;;21.02;19.33;;;;;;;14.26;65.92;101350.38;5073214;28;20131;-90
2023/04/28 15:59:55;;;;;;;21.52;19.85;;;;;;;14.88;63.62;101341.50;5088492;28;20079;-90
2023/04/28 16:02:22;;;;;;;21.30;19.60;;;;;;;14.99;63.28;101344.53;5082031;28;20090;-90
2023/04/28 16:04:49;;;;;;;20.40;18.70;;;;;;;14.45;69.90;101344.09;5089138;28;20440;-90
2023/04/28 16:07:16;;;;;;;20.27;18.50;;;;;;;14.07;75.17;101339.59;5082757;28;20527;-90
2023/04/28 16:09:43;;;;;;;21.02;19.10;;;;;;;14.35;79.13;101346.44;5086429;28;20050;-91
2023/04/28 16:12:10;;;;;;;20.17;18.50;;;;;;;14.44;83.96;101334.44;5083121;28;20048;-90
2023/04/28 16:14:38;;;;;;;21.38;19.77;;;;;;;14.73;74.61;101337.53;5086943;28;20437;-90
2023/04/28 16:17:05;;;;;;;23.73;21.95;;;;;;;14.35;76.62;101331.22;5085772;28;20048;-90
2023/04/28 16:19:32;;;;;;;22.05;20.15;;;;;;;13.92;81.94;101333.72;5075770;28;20060;-91
2023/04/28 16:22:00;;;;;;;20.80;18.88;;;;;;;14.36;76.76;101340.84;5083397;28;20044;-90
2023/04/28 16:24:27;;;;;;;22.52;20.50;;;;;;;14.28;83.12;101343.81;5086296;28;20044;-90
2023/04/28 16:26:54;;;;;;;22.35;20.30;;;;;;;14.05;91.40;101335.50;5077095;28;20414;-91
2023/04/28 16:29:22;;;;;;;23.25;21.13;;;;;;;13.65;100.00;101335.69;5081651;28;20444;-90
2023/04/28 16:31:50;;;;;;;21.83;19.80;;;;;;;13.73;98.84;101333.56;5087236;28;20147;-90
2023/04/28 16:34:18;;;;;;;20.88;19.17;;;;;;;13.41;97.76;101332.69;5077459;28;20425;-90
2023/04/28 16:36:45;;;;;;;22.30;20.50;;;;;;;13.28;98.89;101346.88;5078943;28;20051;-90
2023/04/28 16:39:12;;;;;;;22.00;20.30;;;;;;;12.55;100.00;101341.53;5085262;28;20048;-91
2023/04/28 16:41:38;;;;;;;21.77;19.85;;;;;;;12.77;100.00;101349.34;5087242;28;20040;-90
2023/04/28 16:44:06;;;;;;;23.50;21.70;;;;;;;12.94;100.00;101345.22;5084181;28;20051;-90
2023/04/28 16:46:33;;;;;;;22.15;20.30;;;;;;;12.65;100.00;101345.63;5080188;28;20044;-90
2023/04/28 16:49:02;;;;;;;21.80;20.08;;;;;;;12.55;100.00;101346.84;5073793;28;21270;-89
2023/04/28 16:51:29;;;;;;;22.58;20.58;;;;;;;12.37;100.00;101336.81;5085793;28;20048;-90
2023/04/28 16:53:56;;;;;;;21.40;19.40;;;;;;;12.27;100.00;101339.03;5084005;28;20075;-90
2023/04/28 16:56:23;;;;;;;20.50;18.55;;;;;;;11.53;100.00;101347.75;5075230;28;20045;-90
2023/04/28 16:58:50;;;;;;;21.50;19.50;;;;;;;11.56;100.00;101354.50;5080320;28;20044;-90
2023/04/28 17:01:17;;;;;;;21.10;19.38;;;;;;;11.21;100.00;101365.13;5090767;28;20134;-90
2023/04/28 17:03:44;;;;;;;24.63;22.42;;;;;;;11.20;100.00;101356.34;5085073;28;20076;-90
2023/04/28 17:06:13;;;;;;;25.42;23.15;;;;;;;10.91;100.00;101354.69;5090133;28;20044;-90
2023/04/28 17:08:41;;;;;;;22.90;20.88;;;;;;;10.71;100.00;101351.88;5088415;28;20048;-90
2023/04/28 17:11:08;;;;;;;25.80;23.45;;;;;;;10.69;100.00;101358.41;5077579;28;20063;-91
2023/04/28 17:13:35;;;;;;;22.83;20.63;;;;;;;10.14;100.00;101355.38;5081934;28;20078;-90
2023/04/28 17:16:02;;;;;;;22.77;20.98;;;;;;;10.14;100.00;101359.88;5088883;28;20048;-90
2023/04/28 17:18:29;;;;;;;22.33;20.42;;;;;;;10.07;100.00;101359.75;5090791;28;20139;-90
2023/04/28 17:20:57;;;;;;;62.13;35.20;;;;;;;10.25;100.00;101356.69;5082107;28;20044;-90
2023/04/28 17:23:26;;;;;;;24.05;21.38;;;;;;;9.93;100.00;101361.47;5090828;28;20044;-90
2023/04/28 17:25:53;;;;;;;23.25;21.45;;;;;;;9.90;100.00;101371.63;5082245;28;20133;-91
2023/04/28 17:28:21;;;;;;;22.63;20.95;;;;;;;9.70;100.00;101376.66;5081164;28;20139;-90
2023/04/28 17:30:48;;;;;;;23.50;21.67;;;;;;;9.63;100.00;101371.28;5084570;28;20048;-91
2023/04/28 17:33:16;;;;;;;26.00;23.38;;;;;;;9.06;100.00;101370.03;5079228;28;20043;-90
2023/04/28 17:35:43;;;;;;;25.23;23.15;;;;;;;8.59;100.00;101372.91;5072392;28;20135;-90
2023/04/28 17:38:10;;;;;;;25.00;23.20;;;;;;;8.74;100.00;101370.31;5065495;28;20493;-90
2023/04/28 17:40:38;;;;;;;25.90;23.65;;;;;;;9.10;100.00;101371.31;5060815;28;20437;-90
2023/04/28 17:43:05;;;;;;;29.40;27.23;;;;;;;9.26;100.00;101374.81;5072907;28;20052;-90
2023/04/28 17:45:32;;;;;;;30.17;27.80;;;;;;;8.91;100.00;101375.31;5071447;28;20049;-90
2023/04/28 17:48:00;;;;;;;26.63;24.55;;;;;;;8.86;100.00;101379.47;5066406;28;20044;-90
2023/04/28 17:50:27;;;;;;;23.55;21.92;;;;;;;8.06;100.00;101393.88;5072629;28;20749;-91
2023/04/28 17:52:54;;;;;;;26.23;24.20;;;;;;;7.90;100.00;101397.44;5070766;28;20046;-90
2023/04/28 17:55:22;;;;;;;25.60;23.77;;;;;;;8.29;100.00;101396.59;5070340;28;20135;-90
2023/04/28 17:57:51;;;;;;;40.50;36.85;;;;;;;8.51;100.00;101396.81;5067317;28;20049;-90
2023/04/28 18:00:18;;;;;;;44.85;40.72;;;;;;;8.54;100.00;101397.28;5071010;28;20044;-90
2023/04/28 18:02:45;;;;;;;30.98;28.25;;;;;;;8.32;100.00;101390.09;5070096;28;20044;-90
2023/04/28 18:05:12;;;;;;;28.80;26.33;;;;;;;8.13;100.00;101386.06;5068001;28;20071;-90
2023/04/28 18:07:39;;;;;;;37.25;31.95;;;;;;;7.54;100.00;101405.78;5049838;28;20055;-90
2023/04/28 18:10:07;;;;;;;44.92;35.17;;;;;;;7.28;100.00;101403.34;5063705;28;20051;-90
2023/04/28 18:25:15;;;;;;;65.53;48.15;;;;;;;7.38;100.00;101400.53;5067455;28;20055;-90
2023/04/28 18:39:50;;;;;;;51.65;45.83;;;;;;;7.03;100.00;101407.03;5062486;28;20564;-90
2023/04/28 18:45:41;;;;;;;55.65;46.42;;;;;;;6.96;100.00;101417.44;5061759;28;20197;-90
2023/04/28 18:48:21;;;;;;;51.42;46.03;;;;;;;6.76;100.00;101401.06;5058978;28;20129;-90
2023/04/28 18:57:30;;;;;;;45.25;40.45;;;;;;;6.55;100.00;101408.63;5045730;28;20049;-90